Time;durP1;ratioP1;P1;durP2;ratioP2;P2;SDS_P1;SDS_P2;PMS_P1;PMS_P2;Temp;Humidity;BMP_temperature;BMP_pressure;BME280_temperature;BME280_humidity;BME280_pressure;Samples;Min_cycle;Max_cycle;Signal;HPM_P1;HPM_P2
2023/12/28 00:01:25;;;;;;;5.82;2.10;;;7.80;99.90;;;;;;5068969;28;20032;-62
2023/12/28 00:03:50;;;;;;;9.07;2.60;;;7.80;99.90;;;;;;5076908;28;20537;-63
2023/12/28 00:06:16;;;;;;;7.43;2.40;;;7.80;99.90;;;;;;5077428;28;20013;-62
2023/12/28 00:08:42;;;;;;;5.82;1.90;;;7.80;99.90;;;;;;5085892;28;20078;-62
2023/12/28 00:11:07;;;;;;;8.32;2.00;;;7.60;99.90;;;;;;5079927;28;20094;-62
2023/12/28 00:13:33;;;;;;;6.90;2.40;;;7.60;99.90;;;;;;5082439;28;20062;-62
2023/12/28 00:15:59;;;;;;;6.75;2.30;;;7.50;99.90;;;;;;5080648;28;20409;-62
2023/12/28 00:18:25;;;;;;;7.55;2.78;;;7.50;99.90;;;;;;5082684;28;20525;-62
2023/12/28 00:20:50;;;;;;;10.32;2.45;;;7.40;99.90;;;;;;5079008;28;20451;-62
2023/12/28 00:23:16;;;;;;;7.35;2.55;;;7.40;99.90;;;;;;5065786;28;20024;-62
2023/12/28 00:25:42;;;;;;;8.95;2.70;;;7.40;99.90;;;;;;5059912;28;20456;-62
2023/12/28 00:28:07;;;;;;;6.93;2.30;;;7.30;99.90;;;;;;5073549;28;20490;-62
2023/12/28 00:30:33;;;;;;;8.10;2.47;;;7.30;99.90;;;;;;5062774;28;20483;-62
2023/12/28 00:32:59;;;;;;;6.97;2.63;;;7.30;99.90;;;;;;5069713;28;20032;-62
2023/12/28 00:35:24;;;;;;;9.85;2.60;;;7.30;99.90;;;;;;5072463;28;20455;-62
2023/12/28 00:37:50;;;;;;;8.38;2.35;;;7.30;99.90;;;;;;5067739;28;20055;-62
2023/12/28 00:40:15;;;;;;;7.65;2.40;;;7.20;99.90;;;;;;5068361;28;20058;-62
2023/12/28 00:42:41;;;;;;;7.55;2.97;;;7.20;99.90;;;;;;5068296;28;20111;-62
2023/12/28 00:45:08;;;;;;;7.60;2.80;;;7.20;99.90;;;;;;5068389;28;20065;-62
2023/12/28 00:47:34;;;;;;;9.02;2.78;;;7.10;99.90;;;;;;5069616;28;20032;-62
2023/12/28 00:49:59;;;;;;;11.73;3.33;;;7.10;99.90;;;;;;5074636;28;20473;-62
2023/12/28 00:52:25;;;;;;;7.93;2.65;;;7.10;99.90;;;;;;5067289;28;20028;-62
2023/12/28 00:54:50;;;;;;;9.13;3.03;;;7.10;99.90;;;;;;5073222;28;20107;-63
2023/12/28 00:57:16;;;;;;;7.85;2.80;;;7.20;99.90;;;;;;5073893;28;20028;-63
2023/12/28 00:59:43;;;;;;;10.77;2.90;;;7.20;99.90;;;;;;5077400;28;20126;-63
2023/12/28 01:02:09;;;;;;;8.10;2.90;;;7.20;99.90;;;;;;5076902;28;20016;-61
2023/12/28 01:04:34;;;;;;;6.78;2.45;;;7.30;99.90;;;;;;5076441;28;20103;-61
2023/12/28 01:07:02;;;;;;;8.38;2.65;;;7.30;99.90;;;;;;5076894;28;20021;-62
2023/12/28 01:09:28;;;;;;;8.65;3.20;;;7.30;99.90;;;;;;5076756;28;20025;-61
2023/12/28 01:11:53;;;;;;;11.60;3.33;;;7.30;99.90;;;;;;5076451;28;20036;-61
2023/12/28 01:14:19;;;;;;;7.32;2.83;;;7.30;99.90;;;;;;5077387;28;20028;-62
2023/12/28 01:16:45;;;;;;;9.82;3.17;;;7.40;99.90;;;;;;5077342;28;20032;-61
2023/12/28 01:19:11;;;;;;;7.55;2.88;;;7.40;99.90;;;;;;5076045;28;20503;-62
2023/12/28 01:21:37;;;;;;;6.70;2.38;;;7.40;99.90;;;;;;5076861;28;20020;-61
2023/12/28 01:24:02;;;;;;;8.80;2.85;;;7.50;99.90;;;;;;5077002;28;20027;-61
2023/12/28 01:26:28;;;;;;;7.47;2.70;;;7.50;99.90;;;;;;5079096;28;20035;-61
2023/12/28 01:28:54;;;;;;;7.05;2.83;;;7.60;99.90;;;;;;5079170;28;20360;-62
2023/12/28 01:31:19;;;;;;;9.00;2.72;;;7.60;99.90;;;;;;5076480;28;20089;-61
2023/12/28 01:33:45;;;;;;;5.72;2.17;;;7.70;99.90;;;;;;5075641;28;20020;-61
2023/12/28 01:36:18;;;;;;;7.78;2.30;;;7.70;99.90;;;;;;5072994;28;20043;-61
2023/12/28 01:38:44;;;;;;;7.18;2.67;;;7.70;99.90;;;;;;5072581;28;20039;-61
2023/12/28 01:41:10;;;;;;;6.28;2.15;;;7.80;99.90;;;;;;5073435;28;20016;-61
2023/12/28 01:43:36;;;;;;;6.53;2.20;;;7.80;99.90;;;;;;5073054;28;20061;-61
2023/12/28 01:46:02;;;;;;;7.55;2.55;;;7.80;99.90;;;;;;5075171;28;20091;-61
2023/12/28 01:48:28;;;;;;;6.78;2.83;;;7.80;99.90;;;;;;5072964;28;20032;-61
2023/12/28 01:50:54;;;;;;;9.02;2.70;;;7.90;99.90;;;;;;5074392;28;20083;-61
2023/12/28 01:53:20;;;;;;;6.07;2.25;;;7.90;99.90;;;;;;5069818;28;20025;-62
2023/12/28 01:55:46;;;;;;;8.32;3.33;;;8.00;99.90;;;;;;5071096;28;20021;-61
2023/12/28 01:58:12;;;;;;;6.65;2.13;;;8.00;99.90;;;;;;5071740;28;20139;-62
2023/12/28 02:00:38;;;;;;;6.47;2.45;;;8.10;99.90;;;;;;5068064;28;20072;-61
2023/12/28 02:03:07;;;;;;;8.20;3.22;;;8.20;99.90;;;;;;5070936;28;20075;-61
2023/12/28 02:05:33;;;;;;;7.63;3.30;;;8.10;99.90;;;;;;5073301;28;20016;-61
2023/12/28 02:07:58;;;;;;;6.35;2.50;;;8.20;99.90;;;;;;5072024;28;20042;-61
2023/12/28 02:10:24;;;;;;;8.60;2.72;;;8.20;99.90;;;;;;5072816;28;20107;-61
2023/12/28 02:12:52;;;;;;;7.45;2.50;;;8.20;99.90;;;;;;5074511;28;20025;-63
2023/12/28 02:15:19;;;;;;;7.28;2.70;;;8.30;99.90;;;;;;5071982;28;20562;-63
2023/12/28 02:17:55;;;;;;;6.93;2.60;;;8.30;99.90;;;;;;5076240;28;20429;-63
2023/12/28 02:20:22;;;;;;;7.25;2.40;;;8.30;99.90;;;;;;5071922;28;20423;-63
2023/12/28 02:22:48;;;;;;;7.80;2.60;;;8.30;99.90;;;;;;5075464;28;20108;-63
2023/12/28 02:25:14;;;;;;;7.10;2.70;;;8.40;99.90;;;;;;5075367;28;20021;-63
2023/12/28 02:27:40;;;;;;;8.63;2.55;;;8.40;99.90;;;;;;5074261;28;20479;-63
2023/12/28 02:30:09;;;;;;;6.38;2.42;;;8.40;99.90;;;;;;5075860;28;20017;-63
2023/12/28 02:32:52;;;;;;;8.27;3.05;;;8.40;99.90;;;;;;5072632;28;20032;-63
2023/12/28 02:35:29;;;;;;;6.47;2.35;;;8.30;99.90;;;;;;5073867;28;20037;-63
2023/12/28 02:37:59;;;;;;;8.32;2.42;;;8.30;99.90;;;;;;5074244;28;20067;-63
2023/12/28 02:40:26;;;;;;;7.15;2.90;;;8.30;99.90;;;;;;5074817;28;20028;-63
2023/12/28 02:42:52;;;;;;;6.70;2.70;;;8.40;99.90;;;;;;5077533;28;20091;-63
2023/12/28 02:45:18;;;;;;;8.00;2.78;;;8.40;99.90;;;;;;5076510;28;20633;-63
2023/12/28 02:47:44;;;;;;;6.40;2.60;;;8.50;99.90;;;;;;5075229;28;20383;-62
2023/12/28 02:50:10;;;;;;;8.35;3.03;;;8.40;99.90;;;;;;5072361;28;20050;-63
2023/12/28 02:52:35;;;;;;;6.18;2.42;;;8.50;99.90;;;;;;5075888;28;20052;-63
2023/12/28 02:55:01;;;;;;;5.88;2.22;;;8.50;99.90;;;;;;5074984;28;20413;-63
2023/12/28 02:57:26;;;;;;;8.77;2.60;;;8.60;99.90;;;;;;5073056;28;20116;-63
2023/12/28 02:59:52;;;;;;;7.60;2.40;;;8.60;99.90;;;;;;5066935;28;20052;-63
2023/12/28 03:02:18;;;;;;;7.03;2.60;;;8.60;99.90;;;;;;5071134;28;20036;-63
2023/12/28 03:04:44;;;;;;;7.07;2.65;;;8.80;99.90;;;;;;5076740;28;20020;-63
2023/12/28 03:07:09;;;;;;;7.20;2.55;;;8.70;99.90;;;;;;5077473;28;20024;-63
2023/12/28 03:09:38;;;;;;;7.82;2.30;;;8.70;99.90;;;;;;5078240;28;20096;-63
2023/12/28 03:12:04;;;;;;;5.47;2.15;;;8.70;99.90;;;;;;5075259;28;20464;-63
2023/12/28 03:14:29;;;;;;;5.75;2.28;;;8.60;99.90;;;;;;5077455;28;20020;-63
2023/12/28 03:16:55;;;;;;;6.10;1.83;;;8.70;99.90;;;;;;5078216;28;20023;-63
2023/12/28 03:19:20;;;;;;;6.18;2.50;;;8.60;99.90;;;;;;5080875;28;20107;-63
2023/12/28 03:21:46;;;;;;;6.47;2.58;;;8.50;99.90;;;;;;5078046;28;20040;-62
2023/12/28 03:24:12;;;;;;;6.43;1.92;;;8.40;99.90;;;;;;5078470;28;20017;-62
2023/12/28 03:26:40;;;;;;;7.82;2.78;;;8.50;99.90;;;;;;5079419;28;20107;-62
2023/12/28 03:29:08;;;;;;;7.78;2.10;;;8.50;99.90;;;;;;5076599;28;20021;-62
2023/12/28 03:31:33;;;;;;;6.55;2.30;;;8.50;99.90;;;;;;5076153;28;20027;-62
2023/12/28 03:33:59;;;;;;;8.68;2.33;;;8.50;99.90;;;;;;5076909;28;20025;-62
2023/12/28 03:36:25;;;;;;;6.38;2.25;;;8.50;99.90;;;;;;5079242;28;20479;-64
2023/12/28 03:38:51;;;;;;;6.95;2.58;;;8.50;99.90;;;;;;5078194;28;20031;-62
2023/12/28 03:41:18;;;;;;;7.38;2.35;;;8.50;99.90;;;;;;5080696;28;20027;-62
2023/12/28 03:43:44;;;;;;;9.82;3.17;;;8.50;99.90;;;;;;5078676;28;20027;-64
2023/12/28 03:46:10;;;;;;;5.70;2.00;;;8.60;99.90;;;;;;5080880;28;20024;-63
2023/12/28 03:48:36;;;;;;;6.57;2.42;;;8.70;99.90;;;;;;5080136;28;20039;-63
2023/12/28 03:51:02;;;;;;;8.35;2.55;;;8.80;99.90;;;;;;5079855;28;20033;-63
2023/12/28 03:53:28;;;;;;;7.53;2.13;;;8.80;99.90;;;;;;5081067;28;20031;-63
2023/12/28 03:55:54;;;;;;;6.45;2.60;;;8.90;99.90;;;;;;5077225;28;20486;-63
2023/12/28 03:58:19;;;;;;;7.47;2.53;;;8.90;99.90;;;;;;5081433;28;20027;-63
2023/12/28 04:00:45;;;;;;;6.40;2.20;;;8.80;99.90;;;;;;5076961;28;20037;-63
2023/12/28 04:03:11;;;;;;;9.10;2.70;;;8.70;99.90;;;;;;5074755;28;20391;-63
2023/12/28 04:05:36;;;;;;;6.28;2.45;;;8.70;99.90;;;;;;5074759;28;20032;-63
2023/12/28 04:08:02;;;;;;;4.68;1.70;;;8.80;99.90;;;;;;5075548;28;20019;-63
2023/12/28 04:10:32;;;;;;;7.28;2.28;;;8.80;99.90;;;;;;5077355;28;20025;-63
2023/12/28 04:12:58;;;;;;;;;;;8.70;99.90;;;;;;5074696;28;20705;-63
2023/12/28 04:15:25;;;;;;;4.97;1.65;;;8.60;99.90;;;;;;5074781;28;19957;-63
2023/12/28 04:17:51;;;;;;;5.78;2.20;;;8.60;99.90;;;;;;5075903;28;20040;-63
2023/12/28 04:20:16;;;;;;;9.73;2.10;;;8.60;99.90;;;;;;5075234;28;20106;-63
2023/12/28 04:22:43;;;;;;;5.55;1.88;;;8.60;99.90;;;;;;5077299;28;20492;-62
2023/12/28 04:25:09;;;;;;;6.53;2.38;;;8.60;99.90;;;;;;5077637;28;20027;-63
2023/12/28 04:27:35;;;;;;;10.18;2.22;;;8.70;99.90;;;;;;5076610;28;20494;-63
2023/12/28 04:30:01;;;;;;;6.13;2.40;;;8.80;99.90;;;;;;5075231;28;20044;-63
2023/12/28 04:32:27;;;;;;;7.50;2.30;;;8.70;99.90;;;;;;5075570;28;20024;-64
2023/12/28 04:34:53;;;;;;;5.38;1.90;;;8.60;99.90;;;;;;5077835;28;20063;-63
2023/12/28 04:37:19;;;;;;;8.15;1.80;;;8.60;99.90;;;;;;5076150;28;20480;-63
2023/12/28 04:39:45;;;;;;;7.10;2.13;;;8.60;99.90;;;;;;5077793;28;20599;-63
2023/12/28 04:42:11;;;;;;;6.03;2.20;;;8.50;99.90;;;;;;5077014;28;20039;-63
2023/12/28 04:44:40;;;;;;;6.80;2.10;;;8.60;99.90;;;;;;5077492;28;20031;-63
2023/12/28 04:47:06;;;;;;;4.43;1.60;;;8.50;99.90;;;;;;5076885;28;20419;-63
2023/12/28 04:49:31;;;;;;;5.65;1.90;;;8.50;99.90;;;;;;5076074;28;20020;-63
2023/12/28 04:51:57;;;;;;;3.78;1.40;;;8.50;99.90;;;;;;5078451;28;20032;-63
2023/12/28 04:54:23;;;;;;;6.28;1.92;;;8.50;99.90;;;;;;5076993;28;20541;-63
2023/12/28 04:56:48;;;;;;;10.27;2.20;;;8.50;99.90;;;;;;5079903;28;20038;-63
2023/12/28 04:59:14;;;;;;;7.05;1.95;;;8.50;99.90;;;;;;5077861;28;20153;-64
2023/12/28 05:01:45;;;;;;;5.65;2.00;;;8.50;99.90;;;;;;5078071;28;20391;-63
2023/12/28 05:04:11;;;;;;;3.97;1.60;;;8.50;99.90;;;;;;5076689;28;20020;-63
2023/12/28 05:06:37;;;;;;;7.30;1.83;;;8.50;99.90;;;;;;5077662;28;20490;-64
2023/12/28 05:09:04;;;;;;;7.53;1.80;;;8.60;99.90;;;;;;5079106;28;20028;-63
2023/12/28 05:11:29;;;;;;;7.82;2.00;;;8.60;99.90;;;;;;5076974;28;20031;-64
2023/12/28 05:13:55;;;;;;;4.70;1.60;;;8.60;99.90;;;;;;5079932;28;20446;-63
2023/12/28 05:16:21;;;;;;;5.45;1.70;;;8.70;99.90;;;;;;5078011;28;20027;-63
2023/12/28 05:18:47;;;;;;;6.03;2.00;;;8.80;99.90;;;;;;5070256;28;20472;-63
2023/12/28 05:21:13;;;;;;;7.30;1.90;;;8.80;99.90;;;;;;5072637;28;20031;-63
2023/12/28 05:23:38;;;;;;;6.82;1.60;;;8.90;99.90;;;;;;5072454;28;20017;-63
2023/12/28 05:26:04;;;;;;;6.70;1.70;;;8.90;99.90;;;;;;5074058;28;20024;-63
2023/12/28 05:28:30;;;;;;;5.18;1.80;;;8.90;99.90;;;;;;5071550;28;20021;-63
2023/12/28 05:30:56;;;;;;;5.05;1.73;;;8.90;99.90;;;;;;5072079;28;20185;-63
2023/12/28 05:33:22;;;;;;;5.75;1.70;;;8.90;99.90;;;;;;5073746;28;20050;-63
2023/12/28 05:35:48;;;;;;;5.30;2.13;;;9.00;99.90;;;;;;5074151;28;20025;-63
2023/12/28 05:38:13;;;;;;;4.82;1.73;;;9.00;99.90;;;;;;5074186;28;20101;-63
2023/12/28 05:40:39;;;;;;;4.43;1.63;;;9.00;99.90;;;;;;5074000;28;20561;-64
2023/12/28 05:43:05;;;;;;;5.07;1.63;;;9.00;99.90;;;;;;5078988;28;20024;-63
2023/12/28 05:45:31;;;;;;;4.20;1.55;;;8.90;99.90;;;;;;5077440;28;20016;-63
2023/12/28 05:47:56;;;;;;;7.38;1.70;;;8.90;99.90;;;;;;5078913;28;20386;-63
2023/12/28 05:50:22;;;;;;;5.45;1.90;;;8.90;99.90;;;;;;5077987;28;20101;-63
2023/12/28 05:52:48;;;;;;;6.40;2.00;;;8.90;99.90;;;;;;5085911;28;20031;-63
2023/12/28 05:55:13;;;;;;;6.82;2.00;;;8.80;99.90;;;;;;5078674;28;20476;-63
2023/12/28 05:57:39;;;;;;;4.80;1.75;;;8.90;99.90;;;;;;5086650;28;20554;-63
2023/12/28 06:00:06;;;;;;;5.50;1.92;;;8.80;99.90;;;;;;5078673;28;20041;-63
2023/12/28 06:02:32;;;;;;;6.22;2.05;;;8.80;99.90;;;;;;5073458;28;20077;-63
2023/12/28 06:04:57;;;;;;;6.47;2.15;;;8.90;99.90;;;;;;5080077;28;20025;-63
2023/12/28 06:07:23;;;;;;;5.80;1.85;;;8.90;99.90;;;;;;5078426;28;20013;-63
2023/12/28 06:09:48;;;;;;;6.30;1.90;;;8.80;99.90;;;;;;5080086;28;20033;-63
2023/12/28 06:12:14;;;;;;;6.30;1.90;;;8.90;99.90;;;;;;5079689;28;20551;-63
2023/12/28 06:14:40;;;;;;;5.60;1.88;;;8.90;99.90;;;;;;5078442;28;20017;-63
2023/12/28 06:17:06;;;;;;;5.32;1.92;;;9.00;99.90;;;;;;5082365;28;20027;-63
2023/12/28 06:19:32;;;;;;;5.63;1.48;;;9.10;99.90;;;;;;5072732;28;20074;-63
2023/12/28 06:21:58;;;;;;;7.22;2.03;;;9.10;99.90;;;;;;5071907;28;20028;-63
2023/12/28 06:24:24;;;;;;;8.18;2.00;;;9.10;99.90;;;;;;5069647;28;20021;-63
2023/12/28 06:26:50;;;;;;;6.65;2.03;;;9.00;99.90;;;;;;5072309;28;20016;-63
2023/12/28 06:29:16;;;;;;;9.07;2.05;;;9.00;99.90;;;;;;5072277;28;20039;-63
2023/12/28 06:31:42;;;;;;;7.93;1.73;;;8.90;99.90;;;;;;5079500;28;20035;-63
2023/12/28 06:34:07;;;;;;;6.10;1.88;;;9.00;99.90;;;;;;5077965;28;20044;-63
2023/12/28 06:36:33;;;;;;;5.95;1.90;;;9.00;99.90;;;;;;5080967;28;20447;-63
2023/12/28 06:38:59;;;;;;;6.10;1.88;;;9.00;99.90;;;;;;5083844;28;20052;-63
2023/12/28 06:41:25;;;;;;;7.85;2.13;;;9.00;99.90;;;;;;5082501;28;20046;-63
2023/12/28 06:43:51;;;;;;;6.38;1.92;;;9.00;99.90;;;;;;5083053;28;20468;-63
2023/12/28 06:46:17;;;;;;;6.95;2.10;;;9.00;99.90;;;;;;5081539;28;20023;-63
2023/12/28 06:48:43;;;;;;;7.88;1.95;;;9.00;99.90;;;;;;5084051;28;20020;-63
2023/12/28 06:51:10;;;;;;;5.57;1.63;;;8.90;99.90;;;;;;5084943;28;20455;-63
2023/12/28 06:53:35;;;;;;;6.07;1.80;;;8.90;99.90;;;;;;5081924;28;20360;-63
2023/12/28 06:56:01;;;;;;;6.05;1.55;;;8.80;99.90;;;;;;5082863;28;20035;-63
2023/12/28 06:58:27;;;;;;;7.22;2.20;;;8.90;99.90;;;;;;5081822;28;20032;-63
2023/12/28 07:00:52;;;;;;;4.90;1.90;;;8.80;99.90;;;;;;5080301;28;20052;-64
2023/12/28 07:03:18;;;;;;;6.85;1.90;;;8.70;99.90;;;;;;5084455;28;20363;-63
2023/12/28 07:05:44;;;;;;;8.48;2.00;;;8.70;99.90;;;;;;5080887;28;20093;-63
2023/12/28 07:08:09;;;;;;;5.22;1.65;;;8.60;99.90;;;;;;5081771;28;20066;-63
2023/12/28 07:10:35;;;;;;;7.35;2.40;;;8.70;99.90;;;;;;5076864;28;20024;-63
2023/12/28 07:13:01;;;;;;;10.02;2.08;;;8.60;99.90;;;;;;5081092;28;20349;-63
2023/12/28 07:15:27;;;;;;;7.85;2.25;;;8.70;99.90;;;;;;5082437;28;20032;-63
2023/12/28 07:17:52;;;;;;;8.23;2.00;;;8.70;99.90;;;;;;5082997;28;20031;-63
2023/12/28 07:20:18;;;;;;;8.48;2.30;;;8.60;99.90;;;;;;5080400;28;20479;-63
2023/12/28 07:22:43;;;;;;;9.95;2.30;;;8.60;99.90;;;;;;5079860;28;20035;-63
2023/12/28 07:25:10;;;;;;;5.80;1.77;;;8.50;99.90;;;;;;5076461;28;20020;-63
2023/12/28 07:27:36;;;;;;;6.05;1.80;;;8.50;99.90;;;;;;5073588;28;20017;-63
2023/12/28 07:30:02;;;;;;;5.85;1.83;;;8.60;99.90;;;;;;5074419;28;20031;-63
2023/12/28 07:32:31;;;;;;;7.22;1.85;;;8.60;99.90;;;;;;5075572;28;20036;-63
2023/12/28 07:34:57;;;;;;;6.93;1.83;;;8.70;99.90;;;;;;5080849;28;20032;-62
2023/12/28 07:37:22;;;;;;;8.10;1.73;;;8.70;99.90;;;;;;5082295;28;20086;-63
2023/12/28 07:39:48;;;;;;;7.05;1.90;;;8.60;99.90;;;;;;5081537;28;20111;-63
2023/12/28 07:42:13;;;;;;;6.28;1.90;;;8.70;99.90;;;;;;5076904;28;20021;-63
2023/12/28 07:44:40;;;;;;;10.27;2.38;;;8.60;99.90;;;;;;5082539;28;20024;-63
2023/12/28 07:47:06;;;;;;;8.02;1.83;;;8.70;99.90;;;;;;5080267;28;20444;-63
2023/12/28 07:49:31;;;;;;;10.00;2.38;;;8.70;99.90;;;;;;5080060;28;20055;-63
2023/12/28 07:51:57;;;;;;;5.47;1.88;;;8.70;99.90;;;;;;5082862;28;20024;-63
2023/12/28 07:54:23;;;;;;;10.90;2.20;;;8.70;99.90;;;;;;5077055;28;20221;-63
2023/12/28 07:56:48;;;;;;;5.72;2.10;;;8.70;99.90;;;;;;5077306;28;20408;-63
2023/12/28 07:59:14;;;;;;;7.00;1.85;;;8.70;99.90;;;;;;5076929;28;20063;-63
2023/12/28 08:01:39;;;;;;;8.30;2.10;;;8.70;99.90;;;;;;5073814;28;20124;-63
2023/12/28 08:04:05;;;;;;;5.60;2.10;;;8.60;99.90;;;;;;5076115;28;20110;-63
2023/12/28 08:06:32;;;;;;;7.55;1.90;;;8.60;99.90;;;;;;5079802;28;20024;-63
2023/12/28 08:09:01;;;;;;;10.65;3.35;;;8.60;99.90;;;;;;5086855;28;20264;-63
2023/12/28 08:11:29;;;;;;;6.40;1.70;;;8.60;99.90;;;;;;5077386;28;20044;-63
2023/12/28 08:13:55;;;;;;;8.15;2.03;;;8.60;99.90;;;;;;5082849;28;20387;-63
2023/12/28 08:16:20;;;;;;;6.25;1.90;;;8.70;99.90;;;;;;5082856;28;20024;-64
2023/12/28 08:18:46;;;;;;;8.13;1.95;;;8.80;99.90;;;;;;5081039;28;20103;-63
2023/12/28 08:21:12;;;;;;;8.43;2.53;;;8.90;99.90;;;;;;5080553;28;20028;-63
2023/12/28 08:23:38;;;;;;;6.60;2.15;;;9.00;99.90;;;;;;5082912;28;20087;-63
2023/12/28 08:26:04;;;;;;;11.18;2.10;;;9.00;99.90;;;;;;5080104;28;20309;-63
2023/12/28 08:28:30;;;;;;;7.15;2.22;;;9.00;99.90;;;;;;5082586;28;20454;-64
2023/12/28 08:30:56;;;;;;;6.18;1.90;;;9.00;99.90;;;;;;5075537;28;20498;-63
2023/12/28 08:33:22;;;;;;;8.30;1.88;;;9.10;99.90;;;;;;5079559;28;20032;-63
2023/12/28 08:35:48;;;;;;;8.18;2.00;;;9.00;99.90;;;;;;5079865;28;20035;-63
2023/12/28 08:38:13;;;;;;;6.05;1.52;;;9.10;99.90;;;;;;5078736;28;20032;-63
2023/12/28 08:40:39;;;;;;;9.05;2.10;;;9.10;99.90;;;;;;5079516;28;20099;-64
2023/12/28 08:43:04;;;;;;;7.35;1.88;;;9.20;99.90;;;;;;5079600;28;20017;-64
2023/12/28 08:45:30;;;;;;;4.82;1.67;;;9.20;99.90;;;;;;5078087;28;20016;-63
2023/12/28 08:47:56;;;;;;;7.43;1.85;;;9.30;99.90;;;;;;5081786;28;20016;-64
2023/12/28 08:50:22;;;;;;;8.27;2.00;;;9.40;99.90;;;;;;5077823;28;20020;-63
2023/12/28 08:52:48;;;;;;;8.90;2.00;;;9.40;99.90;;;;;;5080568;28;20047;-63
2023/12/28 08:55:14;;;;;;;8.15;2.00;;;9.50;99.90;;;;;;5080914;28;20029;-64
2023/12/28 08:57:39;;;;;;;7.75;2.47;;;9.60;99.90;;;;;;5076619;28;20364;-63
2023/12/28 09:00:06;;;;;;;10.65;3.72;;;9.60;99.90;;;;;;5077369;28;20102;-62
2023/12/28 09:02:32;;;;;;;9.23;1.88;;;9.60;99.90;;;;;;5072198;28;20036;-62
2023/12/28 09:05:00;;;;;;;7.65;2.20;;;9.70;99.90;;;;;;5076888;28;20027;-63
2023/12/28 09:07:26;;;;;;;6.35;1.83;;;9.80;99.90;;;;;;5076913;28;20016;-63
2023/12/28 09:09:52;;;;;;;6.90;1.75;;;9.70;99.90;;;;;;5075018;28;20056;-63
2023/12/28 09:12:18;;;;;;;9.93;2.40;;;9.80;99.90;;;;;;5078725;28;20071;-61
2023/12/28 09:14:43;;;;;;;6.88;2.03;;;9.80;99.90;;;;;;5085010;28;20539;-62
2023/12/28 09:17:09;;;;;;;10.52;1.95;;;9.80;99.90;;;;;;5082495;28;20475;-62
2023/12/28 09:19:34;;;;;;;8.35;1.60;;;9.80;99.90;;;;;;5083152;28;20047;-62
2023/12/28 09:22:00;;;;;;;10.13;2.22;;;9.90;99.90;;;;;;5081043;28;20033;-61
2023/12/28 09:24:25;;;;;;;8.25;1.90;;;9.90;99.90;;;;;;5084389;28;20023;-61
2023/12/28 09:26:51;;;;;;;6.30;1.65;;;10.00;99.90;;;;;;5083298;28;20028;-61
2023/12/28 09:29:17;;;;;;;8.90;1.98;;;10.00;99.90;;;;;;5079800;28;20073;-62
2023/12/28 09:31:42;;;;;;;7.72;2.17;;;9.90;99.90;;;;;;5077790;28;20039;-61
2023/12/28 09:34:08;;;;;;;10.32;1.80;;;10.00;99.90;;;;;;5081069;28;20073;-62
2023/12/28 09:36:34;;;;;;;6.55;1.83;;;10.00;99.90;;;;;;5077816;28;20031;-62
2023/12/28 09:38:59;;;;;;;10.32;2.10;;;10.00;99.90;;;;;;5073672;28;20024;-61
2023/12/28 09:41:34;;;;;;;6.15;1.77;;;10.00;99.90;;;;;;5081341;28;20100;-62
2023/12/28 09:44:13;;;;;;;6.55;1.83;;;10.00;99.90;;;;;;5074711;28;20447;-62
2023/12/28 09:46:42;;;;;;;7.18;1.67;;;10.00;99.90;;;;;;5073185;28;20026;-62
2023/12/28 09:49:09;;;;;;;9.25;2.13;;;10.10;99.90;;;;;;5076878;28;20505;-62
2023/12/28 09:51:35;;;;;;;7.00;1.80;;;10.10;99.90;;;;;;5080839;28;20370;-62
2023/12/28 09:54:02;;;;;;;9.25;2.63;;;10.10;99.90;;;;;;5075886;28;20027;-62
2023/12/28 09:56:28;;;;;;;6.35;1.65;;;10.10;99.90;;;;;;5076231;28;20146;-62
2023/12/28 09:58:56;;;;;;;8.73;1.92;;;10.20;99.90;;;;;;5072531;28;20853;-62
2023/12/28 10:01:22;;;;;;;9.23;2.25;;;10.20;99.90;;;;;;5067786;28;20024;-63
2023/12/28 10:03:48;;;;;;;8.23;2.22;;;10.10;99.90;;;;;;5072524;28;20078;-61
2023/12/28 10:06:15;;;;;;;10.65;2.10;;;10.30;99.90;;;;;;5071212;28;20099;-62
2023/12/28 10:08:48;;;;;;;8.02;2.25;;;10.40;99.90;;;;;;5069556;28;20013;-61
2023/12/28 10:11:18;;;;;;;6.25;2.20;;;10.40;99.90;;;;;;5075534;28;20440;-62
2023/12/28 10:13:44;;;;;;;;;;;10.60;99.90;;;;;;5075189;28;20024;-62
2023/12/28 10:16:11;;;;;;;9.00;2.25;;;10.50;99.90;;;;;;5078349;28;19909;-62
2023/12/28 10:18:42;;;;;;;7.82;2.15;;;10.40;99.90;;;;;;5075403;28;20028;-61
2023/12/28 10:21:08;;;;;;;8.60;1.65;;;10.40;99.90;;;;;;5071852;28;20025;-61
2023/12/28 10:23:34;;;;;;;8.15;1.85;;;10.40;99.90;;;;;;5073636;28;20021;-62
2023/12/28 10:25:59;;;;;;;4.53;1.73;;;10.40;99.90;;;;;;5073473;28;20031;-62
2023/12/28 10:28:25;;;;;;;7.88;2.03;;;10.50;99.90;;;;;;5074380;28;20086;-62
2023/12/28 10:30:57;;;;;;;8.50;2.53;;;10.50;99.90;;;;;;5071590;28;20039;-63
2023/12/28 10:33:23;;;;;;;8.90;2.10;;;10.50;99.90;;;;;;5068867;28;20060;-61
2023/12/28 10:35:52;;;;;;;7.57;2.00;;;10.60;99.90;;;;;;5070255;28;20059;-62
2023/12/28 10:38:18;;;;;;;7.35;1.95;;;10.50;99.90;;;;;;5078045;28;20383;-62
2023/12/28 10:40:45;;;;;;;6.15;1.60;;;10.50;99.90;;;;;;5078361;28;20052;-61
2023/12/28 10:43:15;;;;;;;10.02;2.00;;;10.50;99.90;;;;;;5071115;28;20013;-62
2023/12/28 10:45:43;;;;;;;5.18;1.35;;;10.50;99.90;;;;;;5075948;28;20021;-62
2023/12/28 10:48:11;;;;;;;6.88;1.75;;;10.50;99.90;;;;;;5079760;28;20348;-63
2023/12/28 10:50:42;;;;;;;7.68;1.60;;;10.60;99.90;;;;;;5079086;28;20016;-63
2023/12/28 10:54:00;;;;;;;7.97;1.73;;;10.70;99.90;;;;;;5077429;28;20032;-62
2023/12/28 10:56:49;;;;;;;7.10;1.50;;;10.70;99.90;;;;;;5032326;28;20036;-63
2023/12/28 10:59:27;;;;;;;7.33;1.83;;;10.70;99.90;;;;;;5081030;28;20040;-62
2023/12/28 11:01:56;;;;;;;6.47;1.70;;;10.80;99.90;;;;;;5087953;28;20028;-63
2023/12/28 11:04:34;;;;;;;5.70;1.40;;;10.80;99.90;;;;;;5074426;28;20020;-62
2023/12/28 11:07:02;;;;;;;7.75;1.85;;;10.80;99.90;;;;;;5073133;28;20020;-62
2023/12/28 11:09:30;;;;;;;10.27;1.98;;;10.70;99.90;;;;;;5071163;28;20080;-63
2023/12/28 11:11:59;;;;;;;8.88;2.15;;;10.80;99.90;;;;;;5083918;28;20035;-64
2023/12/28 11:14:26;;;;;;;8.98;2.20;;;10.80;99.90;;;;;;5076213;28;20028;-62
2023/12/28 11:16:53;;;;;;;8.55;2.00;;;10.80;99.90;;;;;;5074565;28;20055;-62
2023/12/28 11:19:21;;;;;;;6.00;1.80;;;10.80;99.90;;;;;;5062524;28;20124;-62
2023/12/28 11:21:48;;;;;;;6.57;1.55;;;10.80;99.90;;;;;;5073650;28;20627;-63
2023/12/28 11:24:14;;;;;;;7.70;1.65;;;10.90;99.90;;;;;;5074947;28;20050;-62
2023/12/28 11:26:40;;;;;;;9.25;2.13;;;11.00;99.90;;;;;;5083680;28;20107;-63
2023/12/28 11:29:06;;;;;;;7.13;1.80;;;11.00;99.90;;;;;;5084941;28;20104;-63
2023/12/28 11:31:35;;;;;;;5.55;1.85;;;10.90;99.90;;;;;;5080041;28;20399;-63
2023/12/28 11:34:03;;;;;;;6.13;1.48;;;11.00;99.90;;;;;;5081128;28;20031;-62
2023/12/28 11:36:40;;;;;;;7.45;1.70;;;11.10;99.90;;;;;;5083224;28;20095;-62
2023/12/28 11:39:06;;;;;;;4.75;1.58;;;11.10;99.90;;;;;;5076313;28;20029;-62
2023/12/28 11:41:33;;;;;;;6.00;1.67;;;11.10;99.90;;;;;;5063751;28;20032;-63
2023/12/28 11:44:05;;;;;;;5.95;1.50;;;11.20;99.90;;;;;;5076983;28;20036;-62
2023/12/28 11:46:36;;;;;;;7.43;1.77;;;11.20;99.90;;;;;;5068709;28;20118;-62
2023/12/28 11:49:05;;;;;;;10.98;2.05;;;11.30;99.90;;;;;;5078095;28;20015;-63
2023/12/28 11:51:34;;;;;;;9.63;2.17;;;11.30;99.90;;;;;;5074647;28;20032;-62
2023/12/28 11:54:00;;;;;;;6.53;1.80;;;11.30;99.90;;;;;;5071148;28;20046;-63
2023/12/28 11:56:26;;;;;;;8.27;1.95;;;11.30;99.90;;;;;;5081398;28;20115;-63
2023/12/28 11:58:51;;;;;;;9.27;2.17;;;11.40;99.90;;;;;;5071936;28;20139;-63
2023/12/28 12:01:17;;;;;;;8.50;2.10;;;11.40;99.90;;;;;;5081032;28;20096;-63
2023/12/28 12:03:43;;;;;;;9.20;2.10;;;11.40;99.90;;;;;;5083081;28;20646;-63
2023/12/28 12:06:09;;;;;;;7.05;1.80;;;11.50;99.90;;;;;;5077191;28;20146;-64
2023/12/28 12:08:35;;;;;;;8.82;1.75;;;11.50;99.90;;;;;;5081045;28;20020;-63
2023/12/28 12:11:05;;;;;;;9.85;2.22;;;11.50;99.90;;;;;;5070088;28;20089;-63
2023/12/28 12:13:31;;;;;;;7.88;2.47;;;11.40;99.90;;;;;;5078582;28;20088;-62
2023/12/28 12:15:57;;;;;;;8.68;1.80;;;11.40;99.90;;;;;;5080187;28;20025;-63
2023/12/28 12:18:23;;;;;;;6.53;1.75;;;11.30;99.90;;;;;;5079614;28;20441;-63
2023/12/28 12:20:50;;;;;;;10.27;2.03;;;11.30;99.90;;;;;;5084900;28;20036;-63
2023/12/28 12:23:16;;;;;;;5.65;1.63;;;11.30;99.90;;;;;;5073166;28;20066;-62
2023/12/28 12:25:41;;;;;;;6.53;1.67;;;11.30;99.90;;;;;;5072605;28;20098;-62
2023/12/28 12:28:07;;;;;;;4.90;1.52;;;11.30;99.90;;;;;;5076171;28;20467;-64
2023/12/28 12:30:33;;;;;;;8.13;1.80;;;11.30;99.90;;;;;;5071254;28;20032;-63
2023/12/28 12:32:59;;;;;;;6.65;1.60;;;11.30;99.90;;;;;;5079536;28;20040;-64
2023/12/28 12:35:25;;;;;;;7.68;1.77;;;11.40;99.90;;;;;;5075465;28;20435;-64
2023/12/28 12:37:51;;;;;;;5.93;1.77;;;11.30;99.90;;;;;;5082793;28;20209;-64
2023/12/28 12:40:19;;;;;;;5.25;1.30;;;11.30;99.90;;;;;;5079433;28;20364;-64
2023/12/28 12:42:53;;;;;;;10.48;1.60;;;11.30;99.90;;;;;;5083032;28;20020;-63
2023/12/28 12:45:19;;;;;;;8.52;1.70;;;11.30;99.90;;;;;;5081508;28;20023;-63
2023/12/28 12:47:46;;;;;;;9.13;1.88;;;11.30;99.90;;;;;;5080740;28;20016;-64
2023/12/28 12:50:12;;;;;;;5.25;1.50;;;11.40;99.90;;;;;;5078343;28;20398;-63